Latest Weather Observations for Gosford

IDN60901

Issued at 9:41 pm EST Tuesday 21 April 2015 (issued every 10 minutes, with the page automatically refreshed every 10 minutes)

About weather observations | Map of Sydney area stations | Latest observations for Sydney area | Other Formats
Station Details ID: 061425 Name: GOSFORD AWS Lat: -33.44 Lon: 151.36 Height: 7.0 m
Data from the previous 72 hours. | See also: Recent months at Gosford
Date/Time
EST
Tmp

°C
App
Tmp
°C
Dew
Point
°C
Rel
Hum
%
Delta-T

°C
Wind Press
QNH
hPa
Press
MSL
hPa
Rain
since
9 am
mm
Dir
 
Spd
km/h
Gust
km/h
Spd
kts
Gust
kts
21/09:31pm 15.1 10.2 14.3 95 0.5 SSW 33 52 18 28 - - 49.8
21/09:30pm 15.1 9.8 14.3 95 0.5 SSW 35 54 19 29 - - 49.6
21/09:00pm 15.2 9.5 14.2 94 0.6 SSW 37 61 20 33 - - 46.6
21/08:30pm 15.0 9.2 13.9 93 0.6 SSW 37 67 20 36 - - 45.6
21/08:08pm 14.9 10.9 14.1 95 0.5 SSW 28 59 15 32 - - 45.2
21/08:00pm 14.3 11.3 13.7 96 0.3 SSW 22 48 12 26 - - 45.0
21/07:30pm 15.5 8.5 13.7 89 1.0 SSW 43 67 23 36 - - 39.6
21/07:00pm 14.6 9.7 13.6 94 0.6 SSW 32 57 17 31 - - 39.4
21/06:35pm 14.7 9.9 13.9 95 0.4 SSW 32 54 17 29 - - 38.2
21/06:30pm 14.7 9.9 13.9 95 0.4 SSW 32 50 17 27 - - 37.8
21/06:00pm 14.5 9.0 13.5 94 0.6 SSW 35 59 19 32 - - 33.0
21/05:30pm 14.6 10.5 13.8 95 0.4 SW 28 50 15 27 - - 30.4
21/05:06pm 14.2 9.1 13.1 93 0.6 SSW 32 50 17 27 - - 29.2
21/05:00pm 14.2 9.4 12.9 92 0.7 SSW 30 46 16 25 - - 28.6
21/04:30pm 14.2 9.6 13.4 95 0.4 SW 30 61 16 33 - - 26.8
21/04:00pm 14.1 8.9 13.3 95 0.4 SSW 33 65 18 35 - - 22.6
21/03:30pm 14.4 7.7 13.3 93 0.6 SSW 41 65 22 35 - - 18.0
21/03:00pm 14.5 8.6 13.5 94 0.6 S 37 57 20 31 - - 14.8
21/02:31pm 14.4 9.5 13.6 95 0.4 S 32 52 17 28 - - 13.0
21/02:30pm 14.4 9.3 13.6 95 0.4 S 33 52 18 28 - - 13.0
21/02:00pm 14.1 7.7 13.1 94 0.6 S 39 65 21 35 - - 11.4
21/01:30pm 14.2 8.1 13.1 93 0.6 S 37 63 20 34 - - 7.8
21/01:00pm 15.5 9.7 12.6 83 1.6 S 35 57 19 31 - - 4.0
21/12:30pm 15.5 9.6 11.1 75 2.3 S 33 57 18 31 - - 4.0
21/12:00pm 15.6 8.7 11.6 77 2.2 S 39 65 21 35 - - 3.2
21/11:30am 16.1 9.2 12.7 80 1.9 S 41 76 22 41 - - 3.0
21/11:00am 14.2 6.3 11.5 84 1.4 S 44 70 24 38 - - 2.6
21/10:30am 15.5 9.5 13.2 86 1.3 S 37 65 20 35 - - 0.8
21/10:00am 15.2 9.1 12.9 86 1.3 S 37 72 20 39 - - 0.8
21/09:30am 15.1 9.9 13.3 89 1.0 S 33 74 18 40 - - 0.6
21/09:00am 15.3 9.2 13.0 86 1.3 S 37 74 20 40 - - 120.8
21/08:30am 15.3 10.1 13.5 89 1.0 S 33 63 18 34 - - 118.4
21/08:00am 15.7 10.1 13.2 85 1.4 S 35 76 19 41 - - 116.4
21/07:30am 16.4 11.1 12.6 78 2.1 S 32 65 17 35 - - 116.0
21/07:18am 16.4 10.7 13.1 81 1.8 S 35 72 19 39 - - 116.0
21/07:00am 15.8 10.6 13.3 85 1.4 S 33 70 18 38 - - 116.0
21/06:30am 15.6 8.3 13.3 86 1.3 S 44 70 24 38 - - 115.8
21/06:00am 15.3 9.5 13.8 91 0.8 S 37 65 20 35 - - 115.0
21/05:30am 15.3 8.6 13.5 89 1.0 S 41 72 22 39 - - 113.4
21/05:00am 15.7 10.0 14.2 91 0.9 S 37 61 20 33 - - 111.4
21/04:30am 14.8 7.7 13.3 91 0.8 S 43 76 23 41 - - 109.4
21/04:00am 15.4 8.9 14.1 92 0.7 S 41 63 22 34 - - 106.8
21/03:30am 15.7 11.0 14.4 92 0.7 S 32 52 17 28 - - 102.6
21/03:00am 15.8 10.2 14.5 92 0.7 S 37 61 20 33 - - 100.6
21/02:48am 15.7 8.9 14.2 91 0.9 S 43 80 23 43 - - 99.8
21/02:30am 15.7 9.6 14.2 91 0.9 S 39 59 21 32 - - 98.4
21/02:00am 15.6 10.0 14.5 93 0.6 S 37 69 20 37 - - 96.0
21/01:30am 15.5 9.9 14.4 93 0.6 S 37 70 20 38 - - 93.8
21/01:00am 15.9 10.4 14.6 92 0.7 S 37 57 20 31 - - 89.8
21/12:30am 15.9 11.1 14.6 92 0.7 S 33 63 18 34 - - 87.4
21/12:01am 16.0 11.3 14.9 93 0.6 S 33 52 18 28 - - 84.6
21/12:00am 16.1 11.5 15.0 93 0.6 S 33 52 18 28 - - 84.6
 
Date/Time
EST
Tmp

°C
App
Tmp
°C
Dew
Point
°C
Rel
Hum
%
Delta-T

°C
Wind Press
QNH
hPa
Press
MSL
hPa
Rain
since
9 am
mm
Dir
 
Spd
km/h
Gust
km/h
Spd
kts
Gust
kts
20/11:30pm 16.3 10.6 15.3 94 0.6 S 39 63 21 34 - - 81.2
20/11:00pm 16.5 11.2 15.4 93 0.6 S 37 63 20 34 - - 76.6
20/10:33pm 16.8 14.3 16.2 96 0.4 SSE 24 50 13 27 - - 73.4
20/10:30pm 16.6 14.0 16.0 96 0.4 SSE 24 46 13 25 - - 73.2
20/10:25pm 16.3 13.2 15.5 95 0.5 S 26 69 14 37 - - 72.6
20/10:00pm 16.5 11.4 15.7 95 0.5 S 37 67 20 36 - - 68.4
20/09:30pm 16.6 12.4 15.6 94 0.6 S 32 54 17 29 - - 65.2
20/09:00pm 16.3 11.8 15.5 95 0.5 S 33 59 18 32 - - 63.8
20/08:33pm 16.5 13.1 15.9 96 0.4 S 28 50 15 27 - - 61.4
20/08:30pm 16.5 14.3 16.0 97 0.3 S 22 44 12 24 - - 61.0
20/08:00pm 16.5 13.6 16.2 98 0.2 S 26 54 14 29 - - 58.4
20/07:45pm 16.4 12.4 16.1 98 0.2 S 32 59 17 32 - - 54.6
20/07:42pm 16.3 12.0 16.0 98 0.2 S 33 59 18 32 - - 54.2
20/07:30pm 16.2 11.1 15.7 97 0.3 SSW 37 61 20 33 - - 52.4
20/07:27pm 16.0 11.2 15.5 97 0.3 S 35 61 19 33 - - 51.6
20/07:03pm 16.7 13.3 15.7 94 0.6 S 28 59 15 32 - - 37.0
20/07:00pm 16.6 13.9 15.6 94 0.6 S 24 50 13 27 - - 36.6
20/06:30pm 16.4 14.0 15.4 94 0.6 SSE 22 52 12 28 - - 32.4
20/06:00pm 16.5 13.0 15.5 94 0.6 SSE 28 52 15 28 - - 26.4
20/05:48pm 16.6 13.1 15.5 93 0.6 SSE 28 56 15 30 - - 24.6
20/05:30pm 17.0 16.5 16.0 94 0.6 S 13 26 7 14 - - 22.2
20/05:00pm 16.4 15.3 15.3 93 0.6 SSE 15 33 8 18 - - 19.4
20/04:30pm 17.1 15.3 15.6 91 0.9 S 19 33 10 18 - - 15.4
20/04:00pm 17.2 16.6 15.7 91 0.9 S 13 33 7 18 - - 13.8
20/03:30pm 17.3 15.4 15.8 91 0.9 S 20 33 11 18 - - 13.2
20/03:00pm 16.9 14.9 15.6 92 0.8 S 20 33 11 18 - - 13.0
20/02:30pm 17.0 15.3 15.7 92 0.8 S 19 35 10 19 - - 12.4
20/02:00pm 17.1 15.5 16.0 93 0.6 S 19 41 10 22 - - 12.2
20/01:30pm 17.1 14.5 16.0 93 0.6 S 24 37 13 20 - - 10.6
20/01:00pm 17.2 17.2 16.2 94 0.6 SSE 11 22 6 12 - - 9.4
20/12:30pm 16.8 15.1 15.8 94 0.6 SSE 19 30 10 16 - - 8.8
20/12:00pm 17.2 17.2 15.2 88 1.2 SSE 9 32 5 17 - - 1.4
20/11:30am 17.6 16.9 15.4 87 1.3 S 13 24 7 13 - - 1.4
20/11:00am 18.3 16.5 15.4 83 1.7 S 19 35 10 19 - - 1.4
20/10:30am 17.2 17.1 16.1 93 0.7 SSW 11 22 6 12 - - 1.4
20/10:00am 16.4 15.7 15.3 93 0.6 S 13 22 7 12 - - 1.4
20/09:30am 14.9 14.6 14.4 97 0.3 SW 9 19 5 10 - - 1.2
20/09:00am 14.1 13.9 13.5 96 0.3 SSW 7 15 4 8 - - 22.2
20/08:30am 13.9 12.4 13.0 94 0.5 SW 13 24 7 13 - - 12.8
20/08:00am 13.8 11.9 12.9 94 0.5 SW 15 28 8 15 - - 11.2
20/07:30am 13.4 10.6 12.6 95 0.4 SW 19 32 10 17 - - 10.4
20/07:00am 13.3 12.0 12.4 94 0.5 SW 11 22 6 12 - - 7.8
20/06:30am 12.8 11.0 12.0 95 0.4 SW 13 22 7 12 - - 7.4
20/06:00am 13.0 11.4 11.7 92 0.7 WSW 11 20 6 11 - - 5.2
20/05:30am 13.1 10.9 12.0 93 0.6 SW 15 32 8 17 - - 4.8
20/05:00am 13.1 10.5 12.0 93 0.6 SW 17 30 9 16 - - 4.0
20/04:30am 13.7 11.1 11.9 89 1.0 SW 17 32 9 17 - - 1.6
20/04:00am 13.9 11.6 11.6 86 1.2 SW 15 33 8 18 - - 1.0
20/03:30am 14.3 11.3 11.8 85 1.3 SW 19 30 10 16 - - 1.0
20/03:00am 14.2 11.5 11.7 85 1.3 SW 17 30 9 16 - - 0.8
20/02:30am 14.1 11.4 11.6 85 1.3 SW 17 24 9 13 - - 0.8
20/02:00am 14.4 11.7 11.7 84 1.4 SSW 17 30 9 16 - - 0.8
20/01:30am 14.3 11.5 11.5 83 1.5 SW 17 28 9 15 - - 0.8
20/01:00am 14.1 11.8 11.8 86 1.2 SW 15 24 8 13 - - 0.8
20/12:30am 14.2 11.4 11.5 84 1.4 SW 17 30 9 16 - - 0.6
20/12:00am 14.5 11.7 11.5 82 1.6 SSW 17 28 9 15 - - 0.6
 
Date/Time
EST
Tmp

°C
App
Tmp
°C
Dew
Point
°C
Rel
Hum
%
Delta-T

°C
Wind Press
QNH
hPa
Press
MSL
hPa
Rain
since
9 am
mm
Dir
 
Spd
km/h
Gust
km/h
Spd
kts
Gust
kts
19/11:30pm 14.1 12.1 11.6 85 1.3 WSW 13 26 7 14 - - 0.4
19/11:00pm 14.5 12.3 12.2 86 1.2 SSW 15 32 8 17 - - 0.4
19/10:30pm 15.7 13.2 11.1 74 2.5 SW 15 20 8 11 - - 0.0
19/10:00pm 15.8 13.4 11.4 75 2.4 SW 15 26 8 14 - - 0.0
19/09:30pm 15.9 12.8 11.5 75 2.4 SW 19 30 10 16 - - 0.0
19/09:00pm 16.1 12.8 11.5 74 2.5 SSW 20 30 11 16 - - 0.0
19/08:30pm 16.4 13.2 12.0 75 2.4 SSW 20 35 11 19 - - 0.0
19/08:00pm 16.4 12.5 12.2 76 2.3 SSW 24 35 13 19 - - 0.0
19/07:50pm 16.6 11.7 12.4 76 2.3 SSW 30 50 16 27 - - 0.0
19/07:30pm 16.8 13.8 12.7 77 2.3 S 20 39 11 21 - - 0.0
19/07:00pm 17.7 12.9 12.8 73 2.7 S 30 44 16 24 - - 0.0
19/06:30pm 18.1 14.3 12.5 70 3.1 S 24 39 13 21 - - 0.0
19/06:00pm 18.0 15.2 13.3 74 2.7 S 20 39 11 21 - - 0.0
19/05:30pm 17.9 15.4 13.4 75 2.5 S 19 32 10 17 - - 0.0
19/05:00pm 17.6 14.5 13.5 77 2.3 S 22 37 12 20 - - 0.0
19/04:30pm 18.5 15.9 14.8 79 2.1 S 22 37 12 20 - - 0.0
19/04:00pm 18.8 15.5 13.9 73 2.8 S 24 35 13 19 - - 0.0
19/03:30pm 18.8 16.6 14.9 78 2.3 S 20 35 11 19 - - 0.0
19/03:00pm 19.6 17.0 14.8 74 2.8 S 22 39 12 21 - - 0.0
19/02:30pm 19.8 17.9 15.2 75 2.7 S 19 33 10 18 - - 0.0
19/02:00pm 20.0 17.9 15.2 74 2.8 SSE 20 35 11 19 - - 0.0
19/01:30pm 20.0 18.2 15.4 75 2.7 SSE 19 35 10 19 - - 0.0
19/01:00pm 21.1 19.4 14.7 67 3.8 S 17 26 9 14 - - 0.0
19/12:30pm 22.8 21.9 13.6 56 5.3 SSW 11 19 6 10 - - 0.0
19/12:00pm 22.0 20.3 12.5 54 5.4 WSW 13 20 7 11 - - 0.0
19/11:30am 21.4 19.4 11.4 53 5.5 WSW 13 20 7 11 - - 0.0
19/11:00am 21.6 19.9 11.3 52 5.7 WSW 11 19 6 10 - - 0.0
19/10:30am 21.3 19.1 10.8 51 5.8 WSW 13 22 7 12 - - 0.0
19/10:00am 21.3 19.4 11.9 55 5.3 WSW 13 19 7 10 - - 0.0
19/09:30am 21.3 18.6 11.6 54 5.4 WSW 17 24 9 13 - - 0.0
19/09:00am 20.9 21.0 16.5 76 2.7 WSW 11 20 6 11 - - 0.4
19/08:30am 19.8 20.7 16.6 82 1.9 WSW 7 9 4 5 - - 0.4
19/08:00am 19.5 21.2 16.3 82 1.9 SSW 2 4 1 2 - - 0.4
19/07:30am 19.4 20.7 16.1 81 2.0 WSW 4 7 2 4 - - 0.4
19/07:00am 18.8 20.4 15.9 83 1.7 WNW 2 6 1 3 - - 0.4
19/06:30am 19.3 19.6 16.0 81 2.0 NW 9 17 5 9 - - 0.4
19/06:00am 18.9 19.2 16.1 84 1.7 WNW 9 15 5 8 - - 0.4
19/05:30am 18.5 19.5 16.3 87 1.3 NW 6 7 3 4 - - 0.4
19/05:00am 18.8 19.7 16.2 85 1.6 NW 6 9 3 5 - - 0.4
19/04:30am 18.9 19.7 16.3 85 1.6 NNW 7 11 4 6 - - 0.4
19/04:00am 18.8 19.6 16.4 86 1.4 NNW 7 11 4 6 - - 0.4
19/03:30am 19.2 19.6 16.2 83 1.8 N 9 15 5 8 - - 0.4
19/03:00am 19.3 19.7 16.3 83 1.8 N 9 20 5 11 - - 0.4
19/02:30am 19.1 19.9 16.3 84 1.7 NNW 7 11 4 6 - - 0.4
19/02:00am 19.1 20.1 16.3 84 1.7 N 6 13 3 7 - - 0.4
19/01:30am 18.8 20.4 16.8 88 1.2 ESE 4 6 2 3 - - 0.4
19/01:00am 19.6 21.0 16.3 81 2.0 NNE 4 6 2 3 - - 0.4
19/12:30am 21.1 22.1 15.4 70 3.4 NNE 4 7 2 4 - - 0.2
19/12:00am 21.4 21.8 15.3 68 3.6 NNW 7 13 4 7 - - 0.2
 
Date/Time
EST
Tmp

°C
App
Tmp
°C
Dew
Point
°C
Rel
Hum
%
Delta-T

°C
Wind Press
QNH
hPa
Press
MSL
hPa
Rain
since
9 am
mm
Dir
 
Spd
km/h
Gust
km/h
Spd
kts
Gust
kts
18/11:30pm 22.3 22.2 14.9 63 4.4 NNW 9 19 5 10 - - 0.2
18/11:00pm 22.3 22.0 15.4 65 4.1 NNW 11 26 6 14 - - 0.2
18/10:30pm 22.4 22.0 16.2 68 3.8 W 13 22 7 12 - - 0.2
18/10:00pm 22.7 24.3 16.9 70 3.6 E 4 6 2 3 - - 0.2

Latest Capital City Observations: Canberra | Sydney | Melbourne | Brisbane | Adelaide | Perth | Hobart | Darwin

Other Formats:

Comma delimited format used in spreadsheet applications
http://www.bom.gov.au/fwo/IDN60901/IDN60901.94782.axf

JavaScript Object Notation format (JSON) in row-major order
http://www.bom.gov.au/fwo/IDN60901/IDN60901.94782.json